Decoded Metar for KGWO (GREENWOOD in MS, USA) (IATA:GWO) | Meteo·Mobile Aviation Weather
aviador You're here:

KGWO Decoded Metar

GREENWOOD in MS, USA
Report Time2018-12-13 09:53:00
UTC Time2018-12-13 10:40:21
Flight Rules vfr VFR
Wind160° at 08 kt
W.Decomp.*RWY 18: 7.6 kt HW 2.6 kt LCW
RWY 23: 2.9 kt HW 7.5 kt LCW
RWY 09: 2.6 kt HW 7.6 kt RCW
W.Rank160° ranks 9
Current wind is above 160° avg. (7.7)
Visibility9999 m
Phenomena:N/A
Clouds:Overcast 065 Hf
Expected CloudBase > 2,000 ft AGL from Temp-Dew spread
Ceiling6,500 ft
Temp13°C (ISA -2)
Dew Point08°C (72% RH)
AAT9.7°C
QNH1015 hPa
Density Alt20 ft
Elevation144 ft
Report Wrong Elevation
Raw Report
KGWO 130953Z AUTO 16008KT 10SM OVC065 13/08 A2998 RMK AO2 SLP152
T01280083=

Extra information for KGWO:More info

Metar Taf Metar & Taf Last 4 Metars F.Rules Stats Wind Profile Meteogram Temp Stats Airport Information Weather charts Add Link Nearby VenuesMetar ALERT Operation Metar Decoded Social comments

AIRNAV info for KGWO